»·PEaware :: N516TT KAVX-KSAN

N516TT :: KAVX-KSAN

FLIGHT INFORMATION

Flight Status: Arrived
Operator: Privately registered:
United States
More flights under this callsign
Pilot: Gareth S. (19921)
Aircraft: Unknown
(ZZZZ)
More flights by this aircraft type
Origin: KAVX Catalina
United States
Destination: KSAN San Diego Intl-Lindbergh
United States
More flights between these airports :: More routes between these airports
Route: +SXC V208 LAX118R CARDI MZB320R MZB
File this flight plan on PilotEdge
Remarks:
Altitude:
(Current/Filed)
9,000ft
Speed:
(Current/Filed)
300kts
Departed: 09-Feb-20 03:39 PM
Arrived: 09-Feb-20 04:20 PM
Distance/Time
Traveled:
74nm/0:41
Distance/Time
To Go:
Arrived

Flight Plot

Page will automatically refresh every two minutes.


Map Options




Map Legend


Flown Route
Filed Route
Departure Airport
Arrival Airport
Navaid (VOR, NDB)
Fix

Horizontal Profiles

Position Reports

Time Latitude Longitude Heading Altitude Ground
Speed
09-Feb-20 15:18 33.403345 -118.416299 27 1569ft 0kts
09-Feb-20 15:19 33.403345 -118.416299 27 1569ft 0kts
09-Feb-20 15:20 33.403345 -118.416299 27 1569ft 0kts
09-Feb-20 15:21 33.403345 -118.416299 27 1569ft 0kts
09-Feb-20 15:22 33.403345 -118.416299 27 1569ft 0kts
09-Feb-20 15:23 33.403345 -118.416299 27 1569ft 0kts
09-Feb-20 15:24 33.403345 -118.416299 27 1569ft 0kts
09-Feb-20 15:25 33.403345 -118.416299 27 1569ft 0kts
09-Feb-20 15:26 33.403345 -118.416299 27 1569ft 0kts
09-Feb-20 15:27 33.403345 -118.416299 27 1569ft 0kts
09-Feb-20 15:28 33.403345 -118.416299 27 1569ft 0kts
09-Feb-20 15:29 33.403345 -118.416299 27 1569ft 0kts
09-Feb-20 15:30 33.403345 -118.416299 27 1569ft 0kts
09-Feb-20 15:31 33.403345 -118.416299 27 1569ft 0kts
09-Feb-20 15:32 33.403345 -118.416299 27 1569ft 0kts
09-Feb-20 15:33 33.403345 -118.416299 27 1569ft 0kts
09-Feb-20 15:34 33.403345 -118.416299 27 1569ft 0kts
09-Feb-20 15:35 33.403345 -118.416299 27 1569ft 0kts
09-Feb-20 15:36 33.403351 -118.417765 230 1569ft 12kts
09-Feb-20 15:37 33.402329 -118.419781 322 1569ft 0kts
09-Feb-20 15:38 33.403323 -118.418506 56 1569ft 44kts
09-Feb-20 15:39 33.418052 -118.383124 116 3481ft 132kts
09-Feb-20 15:40 33.394180 -118.391596 231 5477ft 159kts
09-Feb-20 15:41 33.354852 -118.387445 111 7140ft 228kts
09-Feb-20 15:42 33.358804 -118.310827 94 8720ft 246kts
09-Feb-20 15:43 33.349037 -118.223785 98 8736ft 291kts
09-Feb-20 15:44 33.336073 -118.125589 98 8990ft 306kts
09-Feb-20 15:45 33.322780 -118.025550 99 8990ft 307kts
09-Feb-20 15:46 33.309542 -117.926423 99 8984ft 307kts
09-Feb-20 15:47 33.295931 -117.825258 99 8962ft 307kts
09-Feb-20 15:48 33.281865 -117.724032 100 8962ft 308kts
09-Feb-20 15:49 33.266623 -117.622873 100 8963ft 310kts
09-Feb-20 15:50 33.226205 -117.535573 132 8963ft 309kts
09-Feb-20 15:51 33.171823 -117.466700 134 8963ft 311kts
09-Feb-20 15:52 33.105009 -117.404507 156 8964ft 290kts
09-Feb-20 15:53 33.045111 -117.371200 157 8983ft 227kts
09-Feb-20 15:54 32.986631 -117.338757 158 8749ft 244kts
09-Feb-20 15:55 32.935015 -117.310089 157 6960ft 184kts
09-Feb-20 15:56 32.897654 -117.289236 159 6914ft 124kts
09-Feb-20 15:57 32.867611 -117.272569 159 6916ft 115kts
09-Feb-20 15:58 32.854362 -117.238738 115 6914ft 117kts
09-Feb-20 15:59 32.841266 -117.192552 111 6914ft 168kts
09-Feb-20 16:00 32.826768 -117.142035 111 6914ft 165kts
09-Feb-20 16:01 32.814557 -117.090458 102 6909ft 166kts
09-Feb-20 16:02 32.806286 -117.036635 102 6897ft 166kts
09-Feb-20 16:03 32.797762 -116.981904 102 6006ft 165kts
09-Feb-20 16:04 32.789734 -116.932330 102 4997ft 141kts
09-Feb-20 16:05 32.782128 -116.883831 100 4919ft 162kts
09-Feb-20 16:06 32.773651 -116.835292 110 4936ft 152kts
09-Feb-20 16:07 32.742862 -116.828172 190 4991ft 109kts
09-Feb-20 16:08 32.711176 -116.836059 225 4910ft 130kts
09-Feb-20 16:09 32.698202 -116.877896 251 4964ft 135kts
09-Feb-20 16:10 32.686479 -116.919568 251 4977ft 135kts
09-Feb-20 16:11 32.675244 -116.962153 262 4937ft 144kts
09-Feb-20 16:12 32.686946 -116.999728 285 3512ft 89kts
09-Feb-20 16:13 32.694170 -117.028236 280 2735ft 78kts
09-Feb-20 16:14 32.703046 -117.062426 285 2705ft 88kts
09-Feb-20 16:15 32.709195 -117.092851 278 1704ft 96kts
09-Feb-20 16:16 32.717343 -117.122141 281 1174ft 84kts
09-Feb-20 16:17 32.723570 -117.148223 277 760ft 83kts
09-Feb-20 16:18 32.729649 -117.173689 277 186ft 80kts
09-Feb-20 16:19 32.733464 -117.188358 4 18ft 8kts
09-Feb-20 16:20 32.733940 -117.188123 17 17ft 0kts
09-Feb-20 16:21 32.734001 -117.188099 18 17ft 7kts
09-Feb-20 16:22 32.733316 -117.183848 109 17ft 13kts
09-Feb-20 16:23 32.733202 -117.179224 45 17ft 7kts
09-Feb-20 16:24 32.733662 -117.178468 49 18ft 0kts
09-Feb-20 16:25 32.733662 -117.178469 49 18ft 0kts

Navigation Log

Ident Type
Flight plan parsing failed, navigation log unavailable